Terminal Aerodrome Forecast
Issued by NWS

Home | Current Version | Previous Version | Graphics & Text | Print | Product List | Glossary On
Versions: 1 2 3 4 5 6 7 8 9 10 11 12 13 14 15 16 17 18 19 20 21 22 23 24 25 26
000
FTUS42 KMHX 231039 AAC
TAFISO
TAF AMD
KISO 231039Z 2311/2406 00000KT 3SM -SHRA BR BKN008 OVC060
     FM231400 16005KT 6SM -SHRA OVC015
     FM231600 17010KT 6SM -SHRA OVC025
     FM231800 21010KT 6SM -SHRA OVC030
     FM232200 21010KT 6SM -SHRA OVC015
     FM240100 23005KT 6SM -SHRA OVC007
      AMD LTD TO CLD VIS AND WIND=

USA.gov is the U.S. government's official web portal to all federal, state and local government web resources and services.